Portada
METAR-TAF:

METAR-TAF

Aeropuertos :

Aeropuerto Internacional Hato

Curazao, Antillas Neerlandesas

latitud: 12-12N, longitud: 068-58W, altitud: 9 m

Observación

El informe se hizo hace 30 minutos, a las 07:00 UTC
Viento 10 kt del este
Temperatura 27°C
Humedad 84%
Presión 1013 hPa
Visibilidad 10 km o más

METAR: TNCC 210700Z AUTO 10010KT 9999 NSC 27/24 Q1013 NOSIG

Hora: 03:30 (07:30 UTC)

Pronóstico

El informe se hizo hace 9 horas y 40 minutos, a las 21:50 UTC
Pronóstico válido del 21 a las 00 UTC al 21 a las 24 UTC
Viento 13 kt del este
Visibilidad 10 km o más
Escasas nubes a una altura de 1800 ft
Temporalmente
del 21 a las 02 UTC al 21 a las 12 UTC
Cielo nuboso a una altura de 1500 ft

TAF: TNCC 202150Z 2100/2124 10013KT 9999 FEW018 TEMPO 2102/2112 BKN015

Observaciones y pronósticos meteorológicos de más de 4000 aeropuertos (mensajes METAR y TAF).

Los puntos amarillos y rojos representan las estaciones disponibles.

Ponga el ratón en el punto deseado para ver el nombre de la estación.

Haga clic para ver las observaciones y los pronósticos meteorológicos.

Para cambiar el mapa : haga clic en los botones verdes con una cruz de color negro para hacer un zoom, en el botón verde con un guión para alejar o en las flechas verdes para mapas adyacentes.


METAR-TAF: